Terminal Aerodrome Forecast
Issued by NWS Albany, NY

Current Version | Previous Version | Text Only | Print | Product List | Glossary On
Versions: 1 2 3 4 5 6 7 8 9 10 11 12 13 14 15 16 17 18 19 20 21 22
000
FTUS41 KALY 212339
TAFALB
TAF
KALB 212339Z 2200/2224 18005KT P6SM SCT250
     FM220300 19004KT P6SM SCT120 BKN250
     FM220800 18004KT 3SM BR SCT015 SCT250
     FM221300 18008KT P6SM SCT250
     FM221500 18012G20KT P6SM SCT080 BKN200
     FM221800 20015G24KT P6SM VCSH SCT040 BKN080 PROB30 2219/2224
      3SM TSRA BR BKN030CB=

USA.gov is the U.S. government's official web portal to all federal, state and local government web resources and services.